Ana Sayfa
METAR-TAF:

METAR-TAF

Havaalanları :

Garoua, Kamerun

Enlem: 09-20N, Boylam: 013-23E, yükseklik: 242 m

Güncel hava durumu gözlemi

Rapor saat 07:00 UTC de 31 dakika önce yapıldı.
Rüzgar batıdan 8 kt
Sıcaklık 30°C
Nem 70%
Basınç 1011 hPa
Görüş mesafesi 10 km veya daha fazla
1500 m altında bulut yok ve kümülonimbus yok

METAR: FKKR 230700Z 28008KT CAVOK 30/24 Q1011 NOSIG

Saat: 08:31 (07:31 UTC)

Tahmin

Rapor saat 05:00 UTC de 2 saat ve 31 dakika önce yapıldı.
Ayın 23'si saat 06 UTC'den ayın 23'si saat 18 UTC'ye kadar geçerli Tahmin
Rüzgar güney/güneybatıdan 10 kt
Görüş mesafesi 10 km veya daha fazla
1500 m altında bulut yok ve kümülonimbus yok
Olasılık 30% :
Geçici
ayın 23'si saat 14 UTC'den ayın 23'si saat 18 UTC'ye kadar
2000 ft yükseklikte az bulutlu
2300 ft yükseklikte az bulutlu, Kümülonimbus.
gök gürültülü fırtına

TAF: FKKR 230500Z 2306/2318 21010KT CAVOK PROB30 TEMPO 2314/2318 TS FEW020 FEW023CB

4.000'den fazla havaalanı için hava durumu gözlemleri ve tahminleri (METAR ve TAF raporları).

Kullanılabilir istasyonlar harita üzerinde sarı ve kırmızı noktalarla gösterilir.

İstasyonun adını görmek için fareyi noktanın üzerinde gezdirin.

Sonrasında hava gözlem ve tahminlerini görmek için tıklayın.

Haritayı değiştirmek için: yaklaştırmak için siyah artı işaretli yeşil düğmeye ve uzaklaştırmak için de eksi işaretli düğmeye hızla tıklayın; bitişik haritalar için yeşil okları kullanın.


METAR-TAF: